Time;durP1;ratioP1;P1;durP2;ratioP2;P2;SDS_P1;SDS_P2;PMS_P1;PMS_P2;Temp;Humidity;BMP_temperature;BMP_pressure;BME280_temperature;BME280_humidity;BME280_pressure;Samples;Min_cycle;Max_cycle;Signal;HPM_P1;HPM_P2
2022/11/18 00:00:44;;;;;;;8.65;4.93;;;;;;;;;;5032319;28;20022;-41
2022/11/18 00:03:09;;;;;;;11.10;4.93;;;;;;;;;;5032277;28;20048;-41
2022/11/18 00:05:34;;;;;;;10.52;4.75;;;;;;;;;;5031708;28;20013;-41
2022/11/18 00:08:00;;;;;;;8.20;5.47;;;;;;;;;;5031900;28;20068;-40
2022/11/18 00:10:25;;;;;;;8.98;5.25;;;;;;;;;;5031858;28;20067;-41
2022/11/18 00:15:34;;;;;;;14.48;4.10;;;;;;;;;;5031832;28;20041;-41
2022/11/18 00:18:00;;;;;;;8.70;4.63;;;;;;;;;;5031761;28;20022;-41
2022/11/18 00:20:25;;;;;;;9.57;5.13;;;;;;;;;;5031840;28;20040;-40
2022/11/18 00:22:50;;;;;;;6.97;4.30;;;;;;;;;;5031788;28;20506;-40
2022/11/18 00:25:16;;;;;;;9.73;4.47;;;;;;;;;;5031653;28;20037;-40
2022/11/18 00:27:41;;;;;;;8.20;4.22;;;;;;;;;;5031679;28;20014;-40
2022/11/18 00:30:07;;;;;;;10.75;5.47;;;;;;;;;;5031564;28;20026;-40
2022/11/18 00:32:32;;;;;;;8.57;4.40;;;;;;;;;;5031597;28;20017;-40
2022/11/18 00:34:58;;;;;;;8.48;4.65;;;;;;;;;;5031571;28;20116;-40
2022/11/18 00:37:23;;;;;;;6.63;4.72;;;;;;;;;;5031721;28;20018;-40
2022/11/18 00:39:48;;;;;;;8.43;4.22;;;;;;;;;;5031561;28;20365;-40
2022/11/18 00:44:58;;;;;;;10.43;4.75;;;;;;;;;;5030520;28;20033;-40
2022/11/18 00:47:23;;;;;;;9.05;4.40;;;;;;;;;;5031423;28;20017;-41
2022/11/18 00:49:48;;;;;;;11.25;5.35;;;;;;;;;;5029849;28;20124;-41
2022/11/18 00:52:14;;;;;;;6.38;4.53;;;;;;;;;;5031245;28;20084;-40
2022/11/18 00:54:39;;;;;;;8.20;4.43;;;;;;;;;;5031278;28;20128;-41
2022/11/18 00:57:04;;;;;;;5.57;3.95;;;;;;;;;;5031517;28;20021;-40
2022/11/18 00:59:30;;;;;;;9.80;4.75;;;;;;;;;;5031564;28;20376;-40
2022/11/18 01:01:55;;;;;;;7.32;3.83;;;;;;;;;;5031481;28;20402;-40
2022/11/18 01:04:20;;;;;;;10.90;4.78;;;;;;;;;;5031227;28;20041;-43
2022/11/18 01:06:46;;;;;;;8.98;4.70;;;;;;;;;;5031511;28;20014;-45
2022/11/18 01:09:11;;;;;;;6.65;3.33;;;;;;;;;;5031416;28;20534;-41
2022/11/18 01:14:22;;;;;;;11.00;4.82;;;;;;;;;;5031069;28;20175;-41
2022/11/18 01:16:50;;;;;;;7.72;3.78;;;;;;;;;;5032902;28;20028;-41
2022/11/18 01:19:16;;;;;;;8.82;4.40;;;;;;;;;;5035013;28;20033;-41
2022/11/18 01:21:41;;;;;;;8.95;4.72;;;;;;;;;;5035063;28;20528;-40
2022/11/18 01:24:06;;;;;;;8.30;5.20;;;;;;;;;;5034883;28;20105;-40
2022/11/18 01:26:32;;;;;;;6.72;4.50;;;;;;;;;;5035115;28;20422;-41
2022/11/18 01:28:57;;;;;;;7.05;4.30;;;;;;;;;;5035199;28;20028;-41
2022/11/18 01:31:23;;;;;;;7.68;4.25;;;;;;;;;;5035112;28;20025;-41
2022/11/18 01:33:48;;;;;;;8.75;4.78;;;;;;;;;;5035169;28;20037;-41
2022/11/18 01:36:15;;;;;;;8.35;4.97;;;;;;;;;;5034739;28;20468;-41
2022/11/18 01:38:40;;;;;;;10.43;3.70;;;;;;;;;;5034862;28;20034;-41
2022/11/18 01:41:05;;;;;;;9.55;4.70;;;;;;;;;;5034658;28;20032;-41
2022/11/18 01:43:50;;;;;;;9.60;4.22;;;;;;;;;;5034679;28;20108;-40
2022/11/18 01:46:15;;;;;;;8.45;4.85;;;;;;;;;;5034572;28;20471;-41
2022/11/18 01:48:40;;;;;;;4.80;3.50;;;;;;;;;;5034389;28;20039;-41
2022/11/18 01:51:11;;;;;;;8.88;4.90;;;;;;;;;;5034798;28;20037;-40
2022/11/18 01:53:41;;;;;;;7.13;4.07;;;;;;;;;;5034445;28;20033;-41
2022/11/18 01:56:11;;;;;;;6.57;3.90;;;;;;;;;;5034658;28;20029;-41
2022/11/18 01:58:38;;;;;;;9.85;5.13;;;;;;;;;;5034492;28;20030;-40
2022/11/18 02:01:04;;;;;;;11.55;5.50;;;;;;;;;;5034513;28;20071;-40
2022/11/18 02:03:30;;;;;;;8.18;3.90;;;;;;;;;;5034377;28;20471;-41
2022/11/18 02:05:57;;;;;;;7.07;3.60;;;;;;;;;;5033051;28;20033;-41
2022/11/18 02:08:23;;;;;;;9.45;4.40;;;;;;;;;;5034235;28;20041;-41
2022/11/18 02:10:48;;;;;;;5.80;3.97;;;;;;;;;;5032833;28;20024;-41
2022/11/18 02:13:16;;;;;;;7.40;4.07;;;;;;;;;;5034338;28;20068;-41
2022/11/18 02:16:00;;;;;;;8.38;4.15;;;;;;;;;;5034077;28;20071;-41
2022/11/18 02:18:46;;;;;;;7.28;3.47;;;;;;;;;;5033973;28;20035;-41
2022/11/18 02:21:28;;;;;;;11.38;4.90;;;;;;;;;;5034118;28;20083;-41
2022/11/18 02:24:02;;;;;;;5.78;3.55;;;;;;;;;;5033985;28;20104;-41
2022/11/18 02:26:27;;;;;;;7.68;4.40;;;;;;;;;;5034249;28;20112;-41
2022/11/18 02:28:53;;;;;;;8.40;4.10;;;;;;;;;;5033508;28;20018;-41
2022/11/18 02:31:50;;;;;;;13.38;4.57;;;;;;;;;;5033975;28;20025;-41
2022/11/18 02:34:15;;;;;;;8.55;4.03;;;;;;;;;;5021010;28;20041;-41
2022/11/18 02:36:51;;;;;;;5.35;3.67;;;;;;;;;;5033809;28;20418;-40
2022/11/18 02:39:18;;;;;;;8.18;4.75;;;;;;;;;;5033474;28;20025;-41
2022/11/18 02:41:45;;;;;;;6.47;3.65;;;;;;;;;;5033657;28;20025;-40
2022/11/18 02:44:12;;;;;;;8.02;4.07;;;;;;;;;;5033580;28;20369;-41
2022/11/18 02:46:38;;;;;;;6.50;3.97;;;;;;;;;;5033543;28;20030;-41
2022/11/18 02:49:09;;;;;;;7.72;4.93;;;;;;;;;;5033355;28;20038;-42
2022/11/18 02:51:35;;;;;;;7.03;4.53;;;;;;;;;;5033466;28;20030;-41
2022/11/18 02:54:02;;;;;;;9.43;4.50;;;;;;;;;;5033390;28;20159;-41
2022/11/18 02:56:28;;;;;;;6.75;4.13;;;;;;;;;;5033354;28;20666;-41
2022/11/18 02:58:54;;;;;;;11.10;4.90;;;;;;;;;;5031974;28;20021;-41
2022/11/18 03:01:22;;;;;;;7.47;4.72;;;;;;;;;;5033223;28;20476;-41
2022/11/18 03:03:47;;;;;;;6.63;3.75;;;;;;;;;;5033197;28;20059;-41
2022/11/18 03:06:15;;;;;;;10.07;4.45;;;;;;;;;;5033423;28;20471;-41
2022/11/18 03:09:01;;;;;;;6.57;4.00;;;;;;;;;;5033394;28;20034;-41
2022/11/18 03:11:28;;;;;;;8.05;3.85;;;;;;;;;;5033068;28;20029;-40
2022/11/18 03:13:59;;;;;;;11.73;3.60;;;;;;;;;;5032956;28;20024;-41
2022/11/18 03:16:28;;;;;;;9.23;4.65;;;;;;;;;;5032950;28;20028;-41
2022/11/18 03:18:53;;;;;;;8.30;3.78;;;;;;;;;;5031667;28;20364;-41
2022/11/18 03:21:33;;;;;;;6.40;3.90;;;;;;;;;;5032750;28;20104;-41
2022/11/18 03:24:06;;;;;;;5.20;3.17;;;;;;;;;;5032941;28;20091;-41
2022/11/18 03:26:34;;;;;;;8.40;2.35;;;;;;;;;;5033155;28;20072;-41
2022/11/18 03:29:02;;;;;;;11.27;4.15;;;;;;;;;;5033007;28;20033;-41
2022/11/18 03:31:31;;;;;;;8.57;3.80;;;;;;;;;;5032567;28;20388;-41
2022/11/18 03:34:05;;;;;;;6.38;4.05;;;;;;;;;;5032941;28;20048;-40
2022/11/18 03:36:32;;;;;;;5.75;3.50;;;;;;;;;;5032559;28;20496;-40
2022/11/18 03:38:59;;;;;;;6.10;4.13;;;;;;;;;;5032508;28;20018;-40
2022/11/18 03:41:26;;;;;;;5.95;3.92;;;;;;;;;;5031750;28;20043;-40
2022/11/18 03:43:55;;;;;;;8.90;4.68;;;;;;;;;;5031146;28;20030;-40
2022/11/18 03:46:22;;;;;;;5.95;3.90;;;;;;;;;;5032457;28;20087;-40
2022/11/18 03:48:51;;;;;;;6.30;4.45;;;;;;;;;;5032301;28;20087;-41
2022/11/18 03:51:19;;;;;;;9.07;4.57;;;;;;;;;;5032265;28;20104;-41
2022/11/18 03:53:49;;;;;;;7.18;4.47;;;;;;;;;;5032204;28;20029;-40
2022/11/18 03:56:17;;;;;;;9.93;4.57;;;;;;;;;;5032515;28;20120;-40
2022/11/18 03:58:48;;;;;;;6.97;3.72;;;;;;;;;;5032068;28;20017;-40
2022/11/18 04:01:20;;;;;;;10.30;5.20;;;;;;;;;;5032040;28;20037;-41
2022/11/18 04:03:45;;;;;;;6.72;4.28;;;;;;;;;;5030875;28;20033;-41
2022/11/18 04:06:23;;;;;;;9.48;4.95;;;;;;;;;;5032239;28;20055;-41
2022/11/18 04:08:52;;;;;;;5.82;4.00;;;;;;;;;;5032071;28;20041;-41
2022/11/18 04:14:08;;;;;;;7.40;4.63;;;;;;;;;;5032066;28;20033;-40
2022/11/18 04:16:41;;;;;;;8.63;4.22;;;;;;;;;;5032205;28;20379;-41
2022/11/18 04:19:06;;;;;;;6.88;3.78;;;;;;;;;;5031671;28;20029;-41
2022/11/18 04:21:31;;;;;;;9.10;4.00;;;;;;;;;;5032152;28;20032;-40
2022/11/18 04:23:57;;;;;;;7.45;4.70;;;;;;;;;;5031771;28;20086;-40
2022/11/18 04:26:22;;;;;;;6.18;3.60;;;;;;;;;;5031620;28;20024;-41
2022/11/18 04:28:47;;;;;;;7.35;4.53;;;;;;;;;;5031742;28;20111;-40
2022/11/18 04:31:13;;;;;;;7.47;3.45;;;;;;;;;;5031869;28;20018;-40
2022/11/18 04:33:38;;;;;;;10.65;4.75;;;;;;;;;;5031811;28;20041;-41
2022/11/18 04:36:04;;;;;;;8.10;4.15;;;;;;;;;;5031616;28;20036;-40
2022/11/18 04:38:29;;;;;;;6.80;4.55;;;;;;;;;;5030204;28;20384;-40
2022/11/18 04:40:54;;;;;;;9.18;4.32;;;;;;;;;;5031815;28;20460;-41
2022/11/18 04:43:20;;;;;;;8.27;3.88;;;;;;;;;;5030161;28;20502;-40
2022/11/18 04:45:45;;;;;;;9.73;4.40;;;;;;;;;;5030576;28;20364;-40
2022/11/18 04:48:10;;;;;;;6.75;3.85;;;;;;;;;;5031186;28;20051;-41
2022/11/18 04:50:36;;;;;;;8.73;4.90;;;;;;;;;;5031289;28;20067;-41
2022/11/18 04:53:01;;;;;;;9.70;4.53;;;;;;;;;;5031198;28;20030;-41
2022/11/18 04:55:27;;;;;;;7.13;3.38;;;;;;;;;;5031494;28;20112;-41
2022/11/18 04:57:52;;;;;;;8.15;4.32;;;;;;;;;;5031315;28;20025;-41
2022/11/18 05:00:18;;;;;;;6.65;4.00;;;;;;;;;;5031243;28;20052;-41
2022/11/18 05:02:43;;;;;;;4.43;3.42;;;;;;;;;;5031459;28;20033;-41
2022/11/18 05:05:08;;;;;;;6.22;3.70;;;;;;;;;;5031459;28;20021;-41
2022/11/18 05:07:34;;;;;;;10.32;4.72;;;;;;;;;;5031277;28;20448;-41
2022/11/18 05:09:59;;;;;;;6.82;3.90;;;;;;;;;;5031174;28;20075;-40
2022/11/18 05:15:11;;;;;;;8.13;4.03;;;;;;;;;;5030916;28;20080;-41
2022/11/18 05:17:36;;;;;;;4.95;3.67;;;;;;;;;;5031249;28;20017;-40
2022/11/18 05:20:02;;;;;;;7.95;3.88;;;;;;;;;;5031358;28;20038;-40
2022/11/18 05:22:27;;;;;;;4.93;3.15;;;;;;;;;;5031012;28;20013;-40
2022/11/18 05:24:53;;;;;;;7.53;3.85;;;;;;;;;;5031080;28;20053;-40
2022/11/18 05:27:18;;;;;;;9.77;4.00;;;;;;;;;;5029688;28;20014;-41
2022/11/18 05:29:44;;;;;;;6.97;3.33;;;;;;;;;;5031245;28;20033;-41
2022/11/18 05:32:09;;;;;;;6.45;3.38;;;;;;;;;;5031279;28;20022;-42
2022/11/18 05:34:35;;;;;;;7.38;2.97;;;;;;;;;;5031201;28;20192;-41
2022/11/18 05:37:00;;;;;;;7.15;3.20;;;;;;;;;;5031039;28;20029;-41
2022/11/18 05:39:26;;;;;;;6.78;3.90;;;;;;;;;;5029598;28;20033;-40
2022/11/18 05:44:35;;;;;;;4.53;2.83;;;;;;;;;;5031194;28;20481;-40
2022/11/18 05:47:00;;;;;;;5.90;3.00;;;;;;;;;;5030972;28;20104;-40
2022/11/18 05:49:27;;;;;;;5.82;3.03;;;;;;;;;;5030763;28;20048;-40
2022/11/18 05:51:52;;;;;;;5.82;4.03;;;;;;;;;;5031089;28;20163;-40
2022/11/18 05:54:18;;;;;;;5.90;4.25;;;;;;;;;;5030794;28;20124;-40
2022/11/18 05:56:44;;;;;;;6.15;3.10;;;;;;;;;;5030856;28;20411;-40
2022/11/18 05:59:10;;;;;;;7.13;3.53;;;;;;;;;;5030933;28;20057;-40
2022/11/18 06:01:37;;;;;;;10.80;4.68;;;;;;;;;;5031165;28;20105;-40
2022/11/18 06:04:07;;;;;;;7.82;4.15;;;;;;;;;;5032585;28;20072;-40
2022/11/18 06:06:32;;;;;;;8.07;5.15;;;;;;;;;;5034338;28;20071;-41
2022/11/18 06:09:02;;;;;;;7.13;3.63;;;;;;;;;;5034236;28;20033;-41
2022/11/18 06:11:30;;;;;;;4.63;3.03;;;;;;;;;;5034197;28;20048;-41
2022/11/18 06:14:02;;;;;;;5.82;3.33;;;;;;;;;;5034106;28;20029;-41
2022/11/18 06:16:29;;;;;;;7.22;3.60;;;;;;;;;;5034153;28;20479;-40
2022/11/18 06:18:55;;;;;;;5.38;3.17;;;;;;;;;;5034078;28;20484;-41
2022/11/18 06:21:21;;;;;;;4.70;2.92;;;;;;;;;;5032676;28;20045;-41
2022/11/18 06:23:46;;;;;;;6.00;3.03;;;;;;;;;;5034378;28;20017;-41
2022/11/18 06:26:13;;;;;;;7.13;3.67;;;;;;;;;;5033847;28;20548;-42
2022/11/18 06:28:39;;;;;;;6.60;3.72;;;;;;;;;;5033959;28;20048;-41
2022/11/18 06:31:04;;;;;;;5.20;3.30;;;;;;;;;;5033879;28;20029;-41
2022/11/18 06:33:30;;;;;;;5.30;3.53;;;;;;;;;;5033720;28;20021;-40
2022/11/18 06:35:55;;;;;;;4.07;3.08;;;;;;;;;;5034052;28;20053;-41
2022/11/18 06:38:22;;;;;;;6.28;4.35;;;;;;;;;;5033687;28;20109;-41
2022/11/18 06:40:47;;;;;;;3.58;2.78;;;;;;;;;;5034017;28;20077;-42
2022/11/18 06:43:58;;;;;;;9.95;3.25;;;;;;;;;;5033606;28;20056;-41
2022/11/18 06:48:44;;;;;;;4.85;2.95;;;;;;;;;;5033282;28;20049;-41
2022/11/18 06:51:09;;;;;;;5.18;3.58;;;;;;;;;;5033757;28;20400;-40
2022/11/18 06:53:39;;;;;;;5.82;2.80;;;;;;;;;;5033398;28;20025;-41
2022/11/18 06:56:05;;;;;;;5.13;3.67;;;;;;;;;;5033747;28;20098;-40
2022/11/18 06:58:31;;;;;;;4.75;3.60;;;;;;;;;;5033303;28;20116;-41
2022/11/18 07:00:56;;;;;;;7.00;3.72;;;;;;;;;;5033531;28;20564;-41
2022/11/18 07:03:22;;;;;;;4.63;2.90;;;;;;;;;;5033152;28;20396;-41
2022/11/18 07:05:47;;;;;;;6.68;3.90;;;;;;;;;;5033249;28;20043;-40
2022/11/18 07:08:13;;;;;;;4.90;2.97;;;;;;;;;;5033089;28;20033;-40
2022/11/18 07:10:38;;;;;;;5.75;3.20;;;;;;;;;;5033156;28;20025;-41
2022/11/18 07:13:03;;;;;;;3.58;2.33;;;;;;;;;;5033082;28;20391;-41
2022/11/18 07:15:28;;;;;;;5.10;2.30;;;;;;;;;;5032801;28;20622;-42
2022/11/18 07:17:54;;;;;;;6.05;2.83;;;;;;;;;;5032950;28;20104;-41
2022/11/18 07:20:19;;;;;;;4.88;2.88;;;;;;;;;;5032853;28;20028;-41
2022/11/18 07:22:44;;;;;;;8.65;3.58;;;;;;;;;;5032959;28;20121;-41
2022/11/18 07:25:10;;;;;;;5.78;3.30;;;;;;;;;;5033026;28;20112;-41
2022/11/18 07:27:35;;;;;;;5.72;3.05;;;;;;;;;;5032819;28;20029;-40
2022/11/18 07:30:00;;;;;;;7.80;3.58;;;;;;;;;;5033040;28;20029;-40
2022/11/18 07:32:26;;;;;;;14.85;2.75;;;;;;;;;;5031359;28;20037;-40
2022/11/18 07:34:51;;;;;;;5.97;2.72;;;;;;;;;;5032638;28;20067;-41
2022/11/18 07:37:17;;;;;;;7.90;2.67;;;;;;;;;;5032806;28;20323;-40
2022/11/18 07:39:42;;;;;;;4.35;2.47;;;;;;;;;;5032624;28;20045;-40
2022/11/18 07:42:08;;;;;;;7.80;3.83;;;;;;;;;;5032599;28;20052;-41
2022/11/18 07:44:33;;;;;;;4.22;1.90;;;;;;;;;;5032411;28;20155;-40
2022/11/18 07:46:59;;;;;;;4.20;2.92;;;;;;;;;;5032535;28;20025;-40
2022/11/18 07:49:24;;;;;;;5.05;3.17;;;;;;;;;;5032222;28;20368;-40
2022/11/18 07:51:49;;;;;;;6.82;4.78;;;;;;;;;;5032305;28;20046;-41
2022/11/18 07:54:18;;;;;;;4.75;3.20;;;;;;;;;;5032195;28;20033;-41
2022/11/18 07:56:43;;;;;;;4.22;2.28;;;;;;;;;;5032282;28;20040;-41
2022/11/18 07:59:09;;;;;;;5.03;2.60;;;;;;;;;;5030915;28;20014;-41
2022/11/18 08:01:34;;;;;;;3.53;2.53;;;;;;;;;;5032171;28;20038;-40
2022/11/18 08:04:04;;;;;;;4.57;2.50;;;;;;;;;;5032177;28;20028;-41
2022/11/18 08:06:31;;;;;;;4.45;3.28;;;;;;;;;;5032020;28;20414;-41
2022/11/18 08:08:56;;;;;;;4.43;2.05;;;;;;;;;;5032252;28;20021;-41
2022/11/18 08:11:22;;;;;;;3.50;2.10;;;;;;;;;;5032017;28;20030;-41
2022/11/18 08:13:47;;;;;;;3.03;2.70;;;;;;;;;;5031898;28;20018;-41
2022/11/18 08:16:14;;;;;;;5.38;2.17;;;;;;;;;;5031824;28;20038;-41
2022/11/18 08:18:39;;;;;;;4.60;2.50;;;;;;;;;;5031990;28;20480;-41
2022/11/18 08:21:05;;;;;;;4.55;2.17;;;;;;;;;;5031710;28;20039;-40
2022/11/18 08:23:31;;;;;;;4.75;2.00;;;;;;;;;;5031807;28;20021;-41
2022/11/18 08:26:04;;;;;;;4.25;2.33;;;;;;;;;;5031225;28;20025;-41
2022/11/18 08:28:30;;;;;;;4.10;2.45;;;;;;;;;;5031858;28;20041;-41
2022/11/18 08:30:55;;;;;;;4.10;2.08;;;;;;;;;;5031993;28;20464;-46
2022/11/18 08:33:21;;;;;;;3.95;2.08;;;;;;;;;;5031854;28;20029;-40
2022/11/18 08:35:46;;;;;;;5.57;2.92;;;;;;;;;;5031826;28;20500;-41
2022/11/18 08:38:11;;;;;;;3.45;2.85;;;;;;;;;;5031546;28;20420;-40
2022/11/18 08:40:38;;;;;;;4.88;2.53;;;;;;;;;;5031589;28;20376;-40
2022/11/18 08:43:03;;;;;;;1.95;1.75;;;;;;;;;;5031730;28;20040;-41
2022/11/18 08:45:28;;;;;;;1.77;1.60;;;;;;;;;;5031776;28;20375;-40
2022/11/18 08:47:54;;;;;;;2.70;1.90;;;;;;;;;;5031376;28;20379;-42
2022/11/18 08:50:19;;;;;;;3.60;2.08;;;;;;;;;;5031334;28;20037;-41
2022/11/18 08:52:45;;;;;;;4.32;2.17;;;;;;;;;;5031387;28;20033;-41
2022/11/18 08:55:10;;;;;;;3.00;2.17;;;;;;;;;;5031427;28;20042;-42
2022/11/18 08:57:35;;;;;;;2.47;2.25;;;;;;;;;;5031398;28;20029;-40
2022/11/18 09:00:01;;;;;;;3.45;2.40;;;;;;;;;;5031316;28;20387;-40
2022/11/18 09:02:27;;;;;;;3.22;2.20;;;;;;;;;;5031220;28;20539;-40
2022/11/18 09:04:52;;;;;;;4.00;2.05;;;;;;;;;;5029872;28;20025;-41
2022/11/18 09:07:19;;;;;;;2.10;1.63;;;;;;;;;;5031241;28;20029;-40
2022/11/18 09:09:44;;;;;;;3.30;2.40;;;;;;;;;;5031244;28;20028;-41
2022/11/18 09:12:13;;;;;;;4.03;2.55;;;;;;;;;;5031282;28;20104;-41
2022/11/18 09:14:40;;;;;;;2.70;1.77;;;;;;;;;;5031426;28;20041;-41
2022/11/18 09:17:05;;;;;;;6.43;3.03;;;;;;;;;;5031144;28;20029;-40
2022/11/18 09:19:31;;;;;;;3.88;2.72;;;;;;;;;;5031387;28;20051;-40
2022/11/18 09:21:56;;;;;;;1.98;1.30;;;;;;;;;;5031237;28;20756;-41
2022/11/18 09:24:22;;;;;;;3.90;1.70;;;;;;;;;;5031245;28;20491;-41
2022/11/18 09:26:48;;;;;;;2.28;1.65;;;;;;;;;;5031170;28;20087;-41
2022/11/18 09:29:14;;;;;;;3.95;2.85;;;;;;;;;;5030885;28;20066;-41
2022/11/18 09:31:39;;;;;;;3.08;2.05;;;;;;;;;;5031397;28;20057;-41
2022/11/18 09:34:05;;;;;;;2.45;1.77;;;;;;;;;;5029755;28;20460;-40
2022/11/18 09:36:30;;;;;;;3.05;2.00;;;;;;;;;;5030962;28;20083;-40
2022/11/18 09:38:57;;;;;;;1.80;1.48;;;;;;;;;;5032909;28;20018;-42
2022/11/18 09:41:23;;;;;;;2.92;1.70;;;;;;;;;;5034695;28;20041;-41
2022/11/18 09:43:54;;;;;;;2.47;1.42;;;;;;;;;;5033575;28;20067;-40
2022/11/18 09:46:49;;;;;;;2.58;2.15;;;;;;;;;;5034748;28;20036;-41
2022/11/18 09:49:23;;;;;;;2.90;1.70;;;;;;;;;;5033156;28;20061;-41
2022/11/18 09:51:50;;;;;;;3.30;1.92;;;;;;;;;;5034573;28;20535;-41
2022/11/18 09:54:35;;;;;;;2.92;2.03;;;;;;;;;;5034630;28;20029;-41
2022/11/18 09:57:01;;;;;;;3.10;2.00;;;;;;;;;;5034383;28;20063;-40
2022/11/18 09:59:29;;;;;;;1.90;1.15;;;;;;;;;;5034653;28;20056;-41
2022/11/18 10:02:00;;;;;;;1.95;1.52;;;;;;;;;;5034406;28;20033;-41
2022/11/18 10:04:26;;;;;;;3.78;1.95;;;;;;;;;;5034628;28;20472;-42
2022/11/18 10:06:52;;;;;;;2.30;1.92;;;;;;;;;;5034549;28;20014;-41
2022/11/18 10:09:23;;;;;;;4.47;1.85;;;;;;;;;;5033221;28;20514;-41
2022/11/18 10:12:24;;;;;;;6.63;1.80;;;;;;;;;;5034313;28;20468;-41
2022/11/18 10:14:52;;;;;;;3.38;1.88;;;;;;;;;;5031564;28;20088;-40
2022/11/18 10:17:36;;;;;;;1.98;1.73;;;;;;;;;;5033746;28;20029;-41
2022/11/18 10:20:17;;;;;;;2.08;1.40;;;;;;;;;;5034488;28;20030;-41
2022/11/18 10:22:42;;;;;;;2.60;1.40;;;;;;;;;;5034101;28;20038;-40
2022/11/18 10:25:15;;;;;;;2.63;1.35;;;;;;;;;;5034332;28;20043;-40
2022/11/18 10:27:42;;;;;;;2.70;2.35;;;;;;;;;;5034083;28;20068;-40
2022/11/18 10:30:11;;;;;;;1.60;1.40;;;;;;;;;;5033902;28;20017;-40
2022/11/18 10:32:51;;;;;;;5.03;1.98;;;;;;;;;;5033778;28;20029;-40
2022/11/18 10:35:31;;;;;;;5.70;1.70;;;;;;;;;;5032707;28;20033;-40
2022/11/18 10:38:01;;;;;;;3.47;1.77;;;;;;;;;;5033795;28;20391;-40
2022/11/18 10:40:27;;;;;;;1.90;1.70;;;;;;;;;;5033879;28;20029;-41
2022/11/18 10:42:52;;;;;;;1.77;1.55;;;;;;;;;;5034017;28;20099;-41
2022/11/18 10:45:21;;;;;;;3.33;1.90;;;;;;;;;;5033913;28;20454;-40
2022/11/18 10:47:55;;;;;;;2.50;1.63;;;;;;;;;;5033874;28;20035;-40
2022/11/18 10:50:27;;;;;;;4.47;2.10;;;;;;;;;;5032927;28;20049;-41
2022/11/18 10:52:52;;;;;;;3.58;1.88;;;;;;;;;;5033788;28;20457;-40
2022/11/18 10:55:20;;;;;;;2.40;1.38;;;;;;;;;;5033401;28;20065;-41
2022/11/18 10:57:45;;;;;;;2.90;2.13;;;;;;;;;;5033364;28;20033;-41
2022/11/18 11:00:30;;;;;;;2.85;1.73;;;;;;;;;;5033354;28;20017;-40
2022/11/18 11:02:55;;;;;;;5.55;1.45;;;;;;;;;;5033469;28;20476;-41
2022/11/18 11:05:21;;;;;;;1.80;1.25;;;;;;;;;;5033183;28;20030;-40
2022/11/18 11:08:13;;;;;;;1.88;1.25;;;;;;;;;;5033556;28;20025;-42
2022/11/18 11:10:39;;;;;;;1.70;1.38;;;;;;;;;;5032871;28;20099;-41
2022/11/18 11:13:11;;;;;;;2.13;1.35;;;;;;;;;;5033055;28;20021;-40
2022/11/18 11:15:42;;;;;;;3.08;1.70;;;;;;;;;;5033269;28;20049;-41
2022/11/18 11:20:57;;;;;;;1.88;1.45;;;;;;;;;;5033066;28;20471;-41
2022/11/18 11:23:23;;;;;;;3.88;2.22;;;;;;;;;;5033173;28;20023;-40
2022/11/18 11:25:54;;;;;;;1.95;1.50;;;;;;;;;;5032949;28;20460;-41
2022/11/18 11:28:32;;;;;;;3.80;1.95;;;;;;;;;;5032732;28;20041;-41
2022/11/18 11:31:09;;;;;;;3.60;1.92;;;;;;;;;;5032873;28;20037;-41
2022/11/18 11:33:51;;;;;;;2.63;1.90;;;;;;;;;;5032940;28;20041;-40
2022/11/18 11:36:32;;;;;;;1.92;1.80;;;;;;;;;;5033021;28;20041;-41
2022/11/18 11:39:12;;;;;;;1.95;1.67;;;;;;;;;;5032600;28;20518;-41
2022/11/18 11:41:45;;;;;;;2.58;1.58;;;;;;;;;;5032439;28;20029;-40
2022/11/18 11:44:11;;;;;;;;;;;;;;;;;;5033064;28;20041;-40
2022/11/18 11:47:45;;;;;;;6.47;2.17;;;;;;;;;;5032376;28;19909;-40
2022/11/18 11:49:58;;;;;;;2.20;1.52;;;;;;;;;;5032082;28;20089;-40
2022/11/18 11:52:30;;;;;;;2.10;1.40;;;;;;;;;;5032074;28;20069;-41
2022/11/18 11:54:59;;;;;;;2.05;1.40;;;;;;;;;;5032406;28;20120;-42
2022/11/18 11:57:43;;;;;;;1.33;1.17;;;;;;;;;;5032253;28;20022;-40
2022/11/18 12:00:09;;;;;;;1.27;1.15;;;;;;;;;;5032333;28;20064;-41
2022/11/18 12:02:37;;;;;;;1.67;1.13;;;;;;;;;;5032061;28;20037;-40
2022/11/18 12:05:25;;;;;;;2.58;1.45;;;;;;;;;;5032206;28;20100;-41
2022/11/18 12:07:54;;;;;;;2.15;1.77;;;;;;;;;;5032087;28;20187;-41
2022/11/18 12:10:43;;;;;;;1.52;1.13;;;;;;;;;;5032272;28;20029;-40
2022/11/18 12:13:13;;;;;;;1.60;1.25;;;;;;;;;;5031364;28;20041;-40
2022/11/18 12:15:47;;;;;;;3.38;1.35;;;;;;;;;;5032072;28;20436;-41
2022/11/18 12:18:16;;;;;;;1.42;1.23;;;;;;;;;;5032156;28;20034;-40
2022/11/18 12:20:43;;;;;;;1.75;1.35;;;;;;;;;;5031990;28;20036;-41
2022/11/18 12:23:13;;;;;;;2.80;1.35;;;;;;;;;;5030790;28;20040;-41
2022/11/18 12:26:02;;;;;;;1.95;1.40;;;;;;;;;;5031758;28;20025;-41
2022/11/18 12:28:36;;;;;;;1.92;1.00;;;;;;;;;;5031009;28;20045;-41
2022/11/18 12:31:17;;;;;;;2.25;1.70;;;;;;;;;;5030417;28;20029;-41
2022/11/18 12:33:45;;;;;;;0.80;0.60;;;;;;;;;;5031740;28;20516;-40
2022/11/18 12:36:24;;;;;;;1.63;1.00;;;;;;;;;;5031841;28;20112;-41
2022/11/18 12:38:51;;;;;;;1.65;0.90;;;;;;;;;;5031735;28;20741;-41
2022/11/18 12:43:45;;;;;;;2.60;1.60;;;;;;;;;;5030281;28;20521;-41
2022/11/18 12:44:28;;;;;;;0.98;0.85;;;;;;;;;;5031494;28;20040;-40
2022/11/18 12:46:58;;;;;;;2.28;1.00;;;;;;;;;;5032135;28;20033;-42
2022/11/18 12:49:26;;;;;;;5.15;0.90;;;;;;;;;;5031263;28;20049;-41
2022/11/18 12:51:58;;;;;;;2.05;0.70;;;;;;;;;;5031413;28;20029;-41
2022/11/18 12:54:27;;;;;;;1.15;0.65;;;;;;;;;;5030057;28;20025;-41
2022/11/18 12:56:56;;;;;;;1.48;0.65;;;;;;;;;;5031732;28;20056;-41
2022/11/18 12:59:29;;;;;;;2.92;1.40;;;;;;;;;;5031219;28;20037;-41
2022/11/18 13:02:13;;;;;;;1.33;1.23;;;;;;;;;;5031522;28;20033;-41
2022/11/18 13:04:39;;;;;;;4.28;0.95;;;;;;;;;;5031247;28;20060;-41
2022/11/18 13:08:11;;;;;;;1.17;0.93;;;;;;;;;;5030070;28;20021;-41
2022/11/18 13:09:51;;;;;;;0.68;0.60;;;;;;;;;;5031173;28;20503;-43
2022/11/18 13:12:17;;;;;;;0.85;0.52;;;;;;;;;;5031973;28;20025;-41
2022/11/18 13:20:32;;;;;;;0.90;0.52;;;;;;;;;;5035135;28;20037;-40
2022/11/18 13:25:43;;;;;;;0.32;0.25;;;;;;;;;;5035180;28;19912;-41
2022/11/18 13:28:29;;;;;;;0.50;0.40;;;;;;;;;;5035096;28;20476;-41
2022/11/18 13:31:15;;;;;;;0.45;0.45;;;;;;;;;;5035103;28;20104;-41
2022/11/18 13:33:40;;;;;;;1.08;0.47;;;;;;;;;;5033509;28;20426;-41
2022/11/18 13:36:32;;;;;;;0.88;0.57;;;;;;;;;;5035161;28;20033;-41
2022/11/18 13:38:59;;;;;;;0.50;0.50;;;;;;;;;;5034688;28;20034;-41
2022/11/18 13:41:31;;;;;;;0.43;0.30;;;;;;;;;;5034970;28;20021;-41
2022/11/18 13:44:15;;;;;;;0.40;0.30;;;;;;;;;;5034963;28;20791;-41
2022/11/18 13:46:41;;;;;;;0.40;0.40;;;;;;;;;;5034636;28;20033;-41
2022/11/18 13:49:12;;;;;;;0.38;0.38;;;;;;;;;;5034607;28;20054;-40
2022/11/18 13:51:38;;;;;;;0.10;0.10;;;;;;;;;;5034588;28;20053;-40
2022/11/18 13:54:04;;;;;;;0.25;0.22;;;;;;;;;;5034873;28;20475;-40
2022/11/18 13:56:30;;;;;;;0.30;0.30;;;;;;;;;;5034797;28;20041;-40
2022/11/18 13:58:59;;;;;;;0.28;0.28;;;;;;;;;;5034486;28;20021;-41
2022/11/18 14:01:26;;;;;;;2.33;0.28;;;;;;;;;;5034372;28;20033;-41
2022/11/18 14:03:57;;;;;;;0.52;0.20;;;;;;;;;;5034401;28;20018;-41
2022/11/18 14:06:36;;;;;;;0.20;0.20;;;;;;;;;;5034343;28;20116;-41
2022/11/18 14:09:06;;;;;;;1.65;1.15;;;;;;;;;;5034367;28;20022;-41
2022/11/18 14:11:44;;;;;;;0.20;0.20;;;;;;;;;;5034262;28;20036;-41
2022/11/18 14:14:26;;;;;;;0.38;0.32;;;;;;;;;;5034227;28;20029;-41
2022/11/18 14:16:52;;;;;;;0.20;0.20;;;;;;;;;;5034283;28;20606;-40
2022/11/18 14:19:28;;;;;;;0.30;0.30;;;;;;;;;;5034277;28;20132;-40
2022/11/18 14:22:01;;;;;;;0.10;0.10;;;;;;;;;;5034264;28;20486;-40
2022/11/18 14:24:27;;;;;;;0.32;0.32;;;;;;;;;;5032993;28;20026;-40
2022/11/18 14:26:53;;;;;;;0.10;0.10;;;;;;;;;;5034108;28;20033;-40
2022/11/18 14:29:22;;;;;;;0.57;0.30;;;;;;;;;;5033773;28;20028;-41
2022/11/18 14:32:08;;;;;;;0.20;0.20;;;;;;;;;;5033892;28;20543;-41
2022/11/18 14:34:34;;;;;;;0.43;0.20;;;;;;;;;;5033721;28;20041;-40
2022/11/18 14:37:01;;;;;;;0.20;0.20;;;;;;;;;;5034174;28;20018;-41
2022/11/18 14:39:27;;;;;;;0.45;0.22;;;;;;;;;;5033696;28;20048;-41
2022/11/18 14:41:53;;;;;;;0.30;0.30;;;;;;;;;;5034077;28;20021;-40
2022/11/18 14:44:19;;;;;;;0.10;0.10;;;;;;;;;;5033712;28;20428;-41
2022/11/18 14:46:48;;;;;;;0.20;0.20;;;;;;;;;;5033685;28;20716;-41
2022/11/18 14:49:16;;;;;;;1.80;0.20;;;;;;;;;;5033554;28;20046;-42
2022/11/18 14:51:44;;;;;;;0.35;0.20;;;;;;;;;;5033381;28;20037;-41
2022/11/18 14:54:14;;;;;;;0.10;0.10;;;;;;;;;;5033507;28;20112;-40
2022/11/18 14:56:40;;;;;;;0.10;0.10;;;;;;;;;;5033511;28;20183;-40
2022/11/18 14:59:06;;;;;;;0.20;0.15;;;;;;;;;;5033375;28;20034;-41
2022/11/18 15:01:31;;;;;;;0.10;0.10;;;;;;;;;;5033345;28;20032;-40
2022/11/18 15:03:57;;;;;;;0.10;0.10;;;;;;;;;;5033403;28;20101;-40
2022/11/18 15:06:23;;;;;;;0.43;0.40;;;;;;;;;;5033274;28;20029;-40
2022/11/18 15:08:49;;;;;;;0.10;0.10;;;;;;;;;;5033464;28;20034;-41
2022/11/18 15:11:15;;;;;;;0.20;0.20;;;;;;;;;;5033258;28;20013;-41
2022/11/18 15:13:41;;;;;;;0.17;0.17;;;;;;;;;;5033095;28;20082;-41
2022/11/18 15:16:09;;;;;;;1.65;0.15;;;;;;;;;;5033347;28;20029;-40
2022/11/18 15:18:35;;;;;;;0.10;0.10;;;;;;;;;;5033055;28;20129;-42
2022/11/18 15:21:00;;;;;;;0.20;0.20;;;;;;;;;;5033394;28;20108;-40
2022/11/18 15:23:26;;;;;;;0.10;0.10;;;;;;;;;;5031628;28;20420;-41